Time;durP1;ratioP1;P1;durP2;ratioP2;P2;SDS_P1;SDS_P2;PMS_P1;PMS_P2;Temp;Humidity;BMP_temperature;BMP_pressure;BME280_temperature;BME280_humidity;BME280_pressure;Samples;Min_cycle;Max_cycle;Signal;HPM_P1;HPM_P2
2021/08/14 00:00:28;;;;;;;10.32;5.35;;;;;;;18.28;63.42;101226.58;1767545;81;21189;-55
2021/08/14 00:03:35;;;;;;;8.78;5.03;;;;;;;18.21;63.55;101220.65;1767794;81;21343;-55
2021/08/14 00:06:41;;;;;;;8.08;5.05;;;;;;;18.16;63.92;101227.33;1767784;81;21280;-55
2021/08/14 00:09:47;;;;;;;10.60;5.15;;;;;;;18.07;64.17;101232.20;1767606;81;21208;-55
2021/08/14 00:12:53;;;;;;;12.35;5.28;;;;;;;17.98;64.40;101233.44;1777718;79;21172;-55
2021/08/14 00:16:01;;;;;;;10.95;5.22;;;;;;;17.89;64.65;101232.72;1744459;80;21216;-55
2021/08/14 00:19:11;;;;;;;10.30;5.25;;;;;;;17.83;64.58;101236.83;1760208;81;21197;-55
2021/08/14 00:22:16;;;;;;;8.85;5.10;;;;;;;17.77;64.74;101240.41;1745048;81;21361;-55
2021/08/14 00:25:22;;;;;;;8.93;5.58;;;;;;;17.72;65.00;101240.16;1766956;80;21192;-55
2021/08/14 00:28:29;;;;;;;8.20;5.15;;;;;;;17.66;65.26;101236.27;1749488;81;21554;-55
2021/08/14 00:31:34;;;;;;;10.45;5.97;;;;;;;17.63;65.29;101238.60;1733314;82;21903;-56
2021/08/14 00:34:40;;;;;;;8.43;5.20;;;;;;;17.57;65.51;101237.48;1733549;82;21390;-55
2021/08/14 00:37:46;;;;;;;9.10;5.55;;;;;;;17.54;65.55;101238.39;1747029;81;21207;-55
2021/08/14 00:40:53;;;;;;;7.72;5.20;;;;;;;17.49;65.80;101238.17;1747927;80;21188;-55
2021/08/14 00:44:05;;;;;;;9.13;5.37;;;;;;;17.44;66.13;101236.48;1746791;82;21412;-55
2021/08/14 00:47:13;;;;;;;7.17;5.22;;;;;;;17.39;66.30;101242.63;1746610;82;21322;-56
2021/08/14 00:50:20;;;;;;;7.05;4.72;;;;;;;17.36;66.52;101239.39;1746922;82;21716;-54
2021/08/14 00:53:25;;;;;;;10.48;5.42;;;;;;;17.33;66.59;101243.95;1746252;82;21283;-55
2021/08/14 00:56:34;;;;;;;8.68;5.78;;;;;;;17.28;66.68;101241.75;1746571;82;21318;-55
2021/08/14 00:59:40;;;;;;;9.68;5.58;;;;;;;17.25;66.72;101247.68;1746767;82;21405;-55
2021/08/14 01:02:45;;;;;;;7.47;5.58;;;;;;;17.23;66.76;101240.64;1750797;81;21306;-55
2021/08/14 01:05:54;;;;;;;9.83;5.62;;;;;;;17.18;66.82;101238.48;1746668;82;21373;-56
2021/08/14 01:09:01;;;;;;;6.97;4.97;;;;;;;17.13;67.03;101235.44;1736928;82;21255;-54
2021/08/14 01:12:08;;;;;;;7.83;5.20;;;;;;;17.11;67.19;101241.69;1746783;81;21310;-55
2021/08/14 01:15:15;;;;;;;12.20;5.58;;;;;;;17.08;67.36;101233.79;1804327;79;21377;-54
2021/08/14 01:18:21;;;;;;;8.78;5.42;;;;;;;17.07;67.63;101245.05;1787301;79;21375;-55
2021/08/14 01:21:31;;;;;;;8.78;5.58;;;;;;;17.05;67.78;101249.92;1803382;79;21839;-55
2021/08/14 01:24:36;;;;;;;9.63;5.40;;;;;;;17.03;67.78;101253.44;1781811;79;21180;-55
2021/08/14 01:27:46;;;;;;;9.73;5.87;;;;;;;17.01;67.85;101258.30;1788124;79;21362;-55
2021/08/14 01:30:53;;;;;;;8.73;5.62;;;;;;;16.99;67.94;101252.09;1782855;80;21211;-53
2021/08/14 01:33:59;;;;;;;10.00;5.35;;;;;;;16.96;68.05;101249.20;1784656;80;21724;-54
2021/08/14 01:37:05;;;;;;;7.75;5.10;;;;;;;16.90;68.19;101242.22;1806240;79;21331;-54
2021/08/14 01:40:13;;;;;;;10.80;5.50;;;;;;;16.85;68.39;101244.70;1806765;79;21189;-55
2021/08/14 01:43:20;;;;;;;9.80;5.67;;;;;;;16.81;68.54;101246.16;1809060;79;21820;-54
2021/08/14 01:46:36;;;;;;;9.70;5.87;;;;;;;16.77;68.71;101248.97;1809525;79;21266;-56
2021/08/14 01:49:41;;;;;;;10.35;5.58;;;;;;;16.75;68.80;101241.38;1809460;79;21227;-55
2021/08/14 01:52:48;;;;;;;7.92;5.42;;;;;;;16.75;68.86;101244.15;1809217;79;21224;-54
2021/08/14 01:55:55;;;;;;;8.83;5.87;;;;;;;16.76;68.96;101243.95;1809388;79;21191;-55
2021/08/14 01:59:03;;;;;;;7.35;5.53;;;;;;;16.75;69.18;101245.02;1800631;79;21228;-55
2021/08/14 02:02:11;;;;;;;9.30;5.70;;;;;;;16.77;69.29;101246.20;1806328;79;21212;-56
2021/08/14 02:05:18;;;;;;;7.05;5.62;;;;;;;16.76;69.47;101243.13;1800816;79;21978;-55
2021/08/14 02:08:24;;;;;;;8.35;5.95;;;;;;;16.75;69.55;101238.62;1767119;81;21417;-56
2021/08/14 02:11:37;;;;;;;7.55;5.45;;;;;;;16.73;69.57;101240.20;1727791;82;21266;-55
2021/08/14 02:14:44;;;;;;;11.73;5.95;;;;;;;16.69;69.65;101240.27;1766675;80;21340;-55
2021/08/14 02:17:51;;;;;;;9.90;5.65;;;;;;;16.67;69.78;101248.41;1765585;80;21188;-55
2021/08/14 02:20:58;;;;;;;10.70;5.65;;;;;;;16.62;69.87;101249.00;1728593;83;21882;-55
2021/08/14 02:24:03;;;;;;;8.18;5.65;;;;;;;16.60;69.88;101253.89;1745321;80;21311;-55
2021/08/14 02:27:08;;;;;;;9.50;6.28;;;;;;;16.54;69.91;101255.19;1728214;81;21747;-55
2021/08/14 02:30:15;;;;;;;9.88;5.70;;;;;;;16.49;70.19;101244.67;1765271;80;21185;-56
2021/08/14 02:33:22;;;;;;;8.98;5.72;;;;;;;16.46;70.22;101248.38;1728934;81;21221;-55
2021/08/14 02:36:28;;;;;;;15.75;6.08;;;;;;;16.42;70.39;101243.20;1795837;79;21189;-56
2021/08/14 02:39:36;;;;;;;9.65;5.78;;;;;;;16.41;70.48;101244.23;1800415;79;21347;-55
2021/08/14 02:42:50;;;;;;;12.20;5.87;;;;;;;16.40;70.56;101239.77;1800344;79;21343;-56
2021/08/14 02:46:00;;;;;;;7.80;5.83;;;;;;;16.40;70.65;101239.77;1771541;79;21197;-54
2021/08/14 02:49:04;;;;;;;7.17;5.83;;;;;;;16.40;70.75;101243.91;1765226;81;21248;-54
2021/08/14 02:52:11;;;;;;;13.62;6.92;;;;;;;16.41;70.77;101250.31;1735353;82;21220;-55
2021/08/14 02:55:18;;;;;;;10.60;6.03;;;;;;;16.43;70.70;101250.95;1765412;81;21357;-54
2021/08/14 02:58:24;;;;;;;7.55;5.78;;;;;;;16.42;70.59;101245.97;1737658;82;21265;-54
2021/08/14 03:01:31;;;;;;;10.15;6.72;;;;;;;16.41;70.67;101251.14;1800205;79;21193;-55
2021/08/14 03:04:37;;;;;;;12.30;6.08;;;;;;;16.44;70.72;101255.45;1799851;79;21236;-55
2021/08/14 03:07:42;;;;;;;15.68;6.47;;;;;;;16.48;70.72;101251.78;1768642;80;21201;-58
2021/08/14 03:10:48;;;;;;;8.35;6.28;;;;;;;16.48;70.75;101251.78;1770035;79;21232;-55
2021/08/14 03:13:54;;;;;;;12.55;7.03;;;;;;;16.48;70.87;101262.33;1772067;79;21210;-55
2021/08/14 03:17:00;;;;;;;14.00;5.90;;;;;;;16.50;71.09;101256.09;1770298;79;21185;-55
2021/08/14 03:20:08;;;;;;;15.60;7.85;;;;;;;16.54;71.25;101257.95;1768153;80;21370;-54
2021/08/14 03:23:13;;;;;;;14.40;7.40;;;;;;;16.59;71.39;101252.67;1769235;79;21280;-55
2021/08/14 03:26:19;;;;;;;11.18;7.33;;;;;;;16.62;71.62;101249.55;1778792;79;21813;-54
2021/08/14 03:29:24;;;;;;;11.70;6.42;;;;;;;16.68;71.68;101246.00;1671872;86;21300;-55
2021/08/14 03:32:32;;;;;;;11.43;6.53;;;;;;;16.75;71.64;101237.23;1691016;84;21746;-54
2021/08/14 03:35:38;;;;;;;10.43;7.00;;;;;;;16.80;71.50;101247.19;1694759;83;21214;-56
2021/08/14 03:38:43;;;;;;;9.65;6.40;;;;;;;16.87;71.46;101248.97;1775057;80;21219;-54
2021/08/14 03:41:49;;;;;;;7.72;6.12;;;;;;;16.93;71.31;101250.98;1766622;81;21744;-56
2021/08/14 03:44:55;;;;;;;8.80;6.97;;;;;;;16.97;71.27;101252.81;1766886;80;21608;-54
2021/08/14 03:48:01;;;;;;;11.80;6.20;;;;;;;17.02;71.27;101251.18;1775607;80;21191;-55
2021/08/14 03:51:08;;;;;;;10.28;6.15;;;;;;;17.09;71.25;101260.94;1767264;81;21701;-53
2021/08/14 03:54:14;;;;;;;8.18;6.03;;;;;;;17.16;71.12;101253.03;1775819;80;21199;-54
2021/08/14 03:57:20;;;;;;;9.68;6.08;;;;;;;17.23;71.00;101254.48;1767158;81;21184;-55
2021/08/14 04:00:28;;;;;;;9.93;6.72;;;;;;;17.29;70.98;101261.98;1773540;80;21432;-55
2021/08/14 04:03:35;;;;;;;10.72;6.72;;;;;;;17.34;70.88;101263.64;1775707;80;21232;-55
2021/08/14 04:06:42;;;;;;;15.15;7.05;;;;;;;17.39;70.79;101254.22;1767281;81;21173;-55
2021/08/14 04:09:48;;;;;;;9.40;6.78;;;;;;;17.44;70.67;101258.64;1775511;80;21731;-54
2021/08/14 04:12:56;;;;;;;10.72;7.33;;;;;;;17.49;70.65;101262.53;1775591;81;21242;-55
2021/08/14 04:16:02;;;;;;;14.98;9.98;;;;;;;17.57;70.60;101262.91;1775990;80;21200;-55
2021/08/14 04:19:08;;;;;;;22.17;12.35;;;;;;;17.64;70.44;101268.00;1767304;81;21235;-55
2021/08/14 04:22:15;;;;;;;19.52;11.03;;;;;;;17.71;70.21;101266.98;1768103;80;21658;-55
2021/08/14 04:25:21;;;;;;;11.63;7.50;;;;;;;17.76;70.09;101274.17;1767332;81;21815;-55
2021/08/14 04:28:26;;;;;;;12.58;7.45;;;;;;;17.80;69.94;101273.25;1768373;80;21290;-55
2021/08/14 04:31:31;;;;;;;10.18;7.28;;;;;;;17.85;69.77;101274.89;1738842;82;21213;-55
2021/08/14 04:34:36;;;;;;;9.60;6.60;;;;;;;17.92;69.65;101281.33;1709801;84;21250;-54
2021/08/14 04:37:41;;;;;;;16.17;7.60;;;;;;;18.00;69.46;101287.27;1771324;81;21208;-54
2021/08/14 04:40:47;;;;;;;9.38;6.28;;;;;;;18.05;69.34;101286.10;1732107;82;21205;-54
2021/08/14 04:43:54;;;;;;;9.75;6.92;;;;;;;18.12;69.28;101289.79;1714049;83;21238;-55
2021/08/14 04:47:04;;;;;;;12.10;6.92;;;;;;;18.18;69.07;101280.14;1754189;81;21721;-56
2021/08/14 04:50:05;;;;;;;10.48;7.03;;;;;;;18.24;68.96;101289.54;1722024;83;21343;-55
2021/08/14 04:53:10;;;;;;;9.70;6.72;;;;;;;18.27;68.78;101288.61;1724861;82;21230;-54
2021/08/14 04:56:17;;;;;;;10.40;7.17;;;;;;;18.29;68.87;101289.27;1716077;82;21384;-54
2021/08/14 04:59:23;;;;;;;8.93;6.62;;;;;;;18.36;68.83;101289.31;1713392;82;21242;-55
2021/08/14 05:02:30;;;;;;;13.45;7.03;;;;;;;18.41;68.73;101273.80;1714109;82;21468;-53
2021/08/14 05:05:37;;;;;;;14.33;6.60;;;;;;;18.52;68.66;101285.69;1715735;82;21364;-55
2021/08/14 05:08:44;;;;;;;9.58;6.30;;;;;;;18.64;68.47;101288.75;1713519;83;21893;-54
2021/08/14 05:11:52;;;;;;;11.22;5.97;;;;;;;18.72;68.23;101288.57;1713321;83;21445;-54
2021/08/14 05:14:57;;;;;;;9.80;6.53;;;;;;;18.79;68.18;101294.46;1712777;83;21922;-55
2021/08/14 05:18:06;;;;;;;9.20;6.70;;;;;;;18.88;68.22;101296.02;1713771;82;21218;-54
2021/08/14 05:21:12;;;;;;;12.10;7.30;;;;;;;19.00;68.02;101296.25;1713731;82;21384;-55
2021/08/14 05:24:17;;;;;;;8.13;6.35;;;;;;;19.13;67.88;101286.06;1713467;82;21376;-55
2021/08/14 05:27:25;;;;;;;12.23;6.55;;;;;;;19.26;67.66;101286.09;1720538;82;21897;-54
2021/08/14 05:30:32;;;;;;;9.50;5.87;;;;;;;19.41;67.42;101289.25;1713783;81;21210;-54
2021/08/14 05:33:38;;;;;;;8.78;6.03;;;;;;;19.55;66.97;101295.98;1734264;82;21217;-55
2021/08/14 05:36:43;;;;;;;10.45;5.87;;;;;;;19.69;66.68;101285.75;1770934;80;21220;-53
2021/08/14 05:39:49;;;;;;;10.98;6.10;;;;;;;19.81;66.62;101287.67;1737007;81;21714;-53
2021/08/14 05:42:54;;;;;;;9.10;7.00;;;;;;;19.96;66.28;101293.02;1735755;82;21328;-54
2021/08/14 05:46:00;;;;;;;9.08;5.80;;;;;;;20.10;65.82;101289.16;1750146;80;21374;-57
2021/08/14 05:49:08;;;;;;;7.20;5.92;;;;;;;20.23;65.62;101294.73;1803906;79;21734;-55
2021/08/14 05:52:15;;;;;;;11.10;6.15;;;;;;;20.35;65.55;101288.81;1794653;79;21194;-54
2021/08/14 05:55:21;;;;;;;10.63;6.00;;;;;;;20.49;65.41;101293.27;1800756;79;21197;-54
2021/08/14 05:58:26;;;;;;;10.70;6.55;;;;;;;20.62;64.84;101290.45;1783944;79;21402;-55
2021/08/14 06:01:35;;;;;;;9.48;6.85;;;;;;;20.75;64.57;101285.71;1809485;79;21326;-54
2021/08/14 06:04:43;;;;;;;12.58;6.12;;;;;;;20.89;64.56;101284.23;1786741;79;21386;-54
2021/08/14 06:07:48;;;;;;;8.35;5.75;;;;;;;21.04;63.91;101289.86;1768022;80;21335;-55
2021/08/14 06:10:53;;;;;;;10.38;6.20;;;;;;;21.16;63.02;101276.10;1759846;81;21371;-54
2021/08/14 06:14:00;;;;;;;9.55;5.90;;;;;;;21.29;63.00;101287.17;1764379;79;21353;-54
2021/08/14 06:17:04;;;;;;;11.90;5.67;;;;;;;21.46;61.84;101287.81;1760883;81;21427;-53
2021/08/14 06:20:15;;;;;;;7.62;4.58;;;;;;;21.58;61.29;101277.63;1764202;80;21208;-54
2021/08/14 06:23:19;;;;;;;7.08;4.95;;;;;;;21.71;60.48;101287.30;1766213;80;21410;-54
2021/08/14 06:26:25;;;;;;;7.12;5.00;;;;;;;21.84;59.54;101276.61;1764225;80;21173;-54
2021/08/14 06:29:33;;;;;;;7.15;4.60;;;;;;;21.95;59.14;101282.30;1765496;80;21245;-54
2021/08/14 06:32:39;;;;;;;7.90;4.60;;;;;;;22.06;58.33;101276.51;1732753;83;21228;-56
2021/08/14 06:35:45;;;;;;;11.22;4.85;;;;;;;22.16;57.98;101273.53;1731253;81;21347;-56
2021/08/14 06:38:51;;;;;;;7.45;3.90;;;;;;;22.26;56.77;101273.53;1718404;81;21241;-54
2021/08/14 06:41:57;;;;;;;8.05;4.62;;;;;;;22.34;55.76;101270.45;1777325;80;21252;-54
2021/08/14 06:45:03;;;;;;;6.72;3.95;;;;;;;22.40;55.59;101268.13;1772555;79;21271;-54
2021/08/14 06:48:09;;;;;;;5.50;3.98;;;;;;;22.47;55.43;101271.14;1777703;79;21189;-54
2021/08/14 06:51:18;;;;;;;7.70;4.53;;;;;;;22.55;55.17;101280.64;1774357;80;21196;-55
2021/08/14 06:54:25;;;;;;;8.15;3.85;;;;;;;22.64;55.05;101282.59;1766055;80;21794;-54
2021/08/14 06:57:34;;;;;;;13.90;5.05;;;;;;;22.72;54.08;101277.52;1771373;81;21166;-55
2021/08/14 07:00:39;;;;;;;10.15;4.92;;;;;;;22.79;53.80;101281.64;1777834;80;21891;-55
2021/08/14 07:03:46;;;;;;;6.22;4.25;;;;;;;22.86;53.44;101281.02;1783996;80;21203;-56
2021/08/14 07:06:52;;;;;;;7.10;4.28;;;;;;;22.93;52.67;101272.86;1776906;80;21307;-56
2021/08/14 07:09:57;;;;;;;5.53;3.77;;;;;;;23.02;52.94;101276.20;1698106;83;21274;-57
2021/08/14 07:13:04;;;;;;;5.25;3.62;;;;;;;23.10;52.44;101264.70;1713608;82;21197;-58
2021/08/14 07:16:11;;;;;;;6.20;3.58;;;;;;;23.21;51.89;101273.11;1719588;82;21249;-54
2021/08/14 07:19:18;;;;;;;5.97;3.65;;;;;;;23.31;51.99;101272.03;1718468;82;21735;-55
2021/08/14 07:22:23;;;;;;;6.58;4.30;;;;;;;23.43;52.28;101267.89;1695035;82;21294;-54
2021/08/14 07:25:28;;;;;;;5.65;4.17;;;;;;;23.57;51.59;101266.59;1774109;80;21192;-54
2021/08/14 07:28:33;;;;;;;7.00;3.87;;;;;;;23.66;51.20;101262.34;1767010;80;21180;-55
2021/08/14 07:31:39;;;;;;;4.62;3.70;;;;;;;23.70;50.92;101259.39;1766619;79;21199;-55
2021/08/14 07:34:47;;;;;;;6.42;3.77;;;;;;;23.79;50.39;101259.34;1769297;80;21256;-54
2021/08/14 07:37:56;;;;;;;10.23;4.67;;;;;;;23.86;49.98;101258.70;1757301;80;21181;-55
2021/08/14 07:41:02;;;;;;;6.25;4.17;;;;;;;24.01;49.99;101264.69;1777725;80;21375;-54
2021/08/14 07:44:08;;;;;;;11.22;3.90;;;;;;;24.08;49.42;101250.05;1777834;80;21386;-55
2021/08/14 07:47:15;;;;;;;5.30;3.92;;;;;;;24.19;49.38;101250.59;1777464;80;21820;-56
2021/08/14 07:50:26;;;;;;;7.35;3.90;;;;;;;24.29;48.72;101253.60;1718227;83;21271;-54
2021/08/14 07:53:33;;;;;;;8.55;3.72;;;;;;;24.36;47.94;101247.34;1764253;80;21720;-54
2021/08/14 07:56:37;;;;;;;4.47;3.20;;;;;;;24.51;48.45;101249.64;1762973;80;21173;-54
2021/08/14 07:59:42;;;;;;;9.30;3.40;;;;;;;24.69;48.03;101246.16;1766961;79;21190;-54
2021/08/14 08:02:48;;;;;;;5.40;3.77;;;;;;;24.79;46.95;101243.59;1771640;80;21204;-55
2021/08/14 08:05:56;;;;;;;6.87;3.58;;;;;;;24.87;45.90;101240.39;1778425;79;21327;-55
2021/08/14 08:09:01;;;;;;;6.15;3.72;;;;;;;25.00;46.51;101242.91;1777983;80;21343;-55
2021/08/14 08:12:07;;;;;;;7.60;3.70;;;;;;;25.18;46.00;101239.60;1778607;80;21331;-56
2021/08/14 08:15:18;;;;;;;5.33;3.60;;;;;;;25.18;45.87;101236.80;1776799;80;21904;-55
2021/08/14 08:18:23;;;;;;;7.92;3.40;;;;;;;25.16;45.10;101237.05;1753694;80;21891;-55
2021/08/14 08:21:29;;;;;;;4.17;3.40;;;;;;;25.11;45.16;101234.69;1777806;80;21828;-55
2021/08/14 08:24:35;;;;;;;8.35;3.20;;;;;;;25.01;44.03;101236.20;1731363;81;21218;-54
2021/08/14 08:27:52;;;;;;;6.10;3.15;;;;;;;24.94;44.53;101238.28;1741349;81;21351;-55
2021/08/14 08:30:58;;;;;;;10.78;3.45;;;;;;;24.92;44.44;101241.91;1753717;80;21355;-53
2021/08/14 08:34:05;;;;;;;7.28;3.12;;;;;;;24.78;44.50;101239.63;1749606;80;21231;-56
2021/08/14 08:37:12;;;;;;;6.90;3.20;;;;;;;24.70;44.44;101239.48;1764398;81;21197;-57
2021/08/14 08:40:18;;;;;;;5.10;3.05;;;;;;;24.77;43.78;101227.56;1774093;81;21181;-55
2021/08/14 08:43:24;;;;;;;7.95;3.00;;;;;;;24.88;43.69;101229.47;1740290;81;21204;-56
2021/08/14 08:46:29;;;;;;;9.35;3.35;;;;;;;24.98;43.95;101228.83;1774076;81;21708;-55
2021/08/14 08:49:35;;;;;;;5.53;3.10;;;;;;;25.07;43.53;101222.29;1736146;81;21215;-55
2021/08/14 08:52:40;;;;;;;7.97;3.47;;;;;;;25.17;43.38;101223.87;1731364;83;21757;-55
2021/08/14 08:55:46;;;;;;;7.45;3.37;;;;;;;25.21;43.98;101223.68;1716355;82;21723;-53
2021/08/14 08:58:51;;;;;;;5.30;3.25;;;;;;;25.16;43.31;101222.17;1731163;82;21724;-54
2021/08/14 09:01:57;;;;;;;5.95;3.58;;;;;;;25.06;43.84;101211.62;1731112;82;21207;-54
2021/08/14 09:05:22;;;;;;;4.58;3.33;;;;;;;25.07;43.87;101204.08;1731740;82;21173;-55
2021/08/14 09:08:29;;;;;;;7.60;3.33;;;;;;;25.08;43.00;101207.16;1732980;82;21279;-54
2021/08/14 09:11:35;;;;;;;6.25;3.00;;;;;;;25.02;42.94;101216.87;1745867;81;21701;-57
2021/08/14 09:14:56;;;;;;;3.92;3.00;;;;;;;25.03;43.25;101210.72;1735648;81;21225;-55
2021/08/14 09:18:11;;;;;;;6.10;3.40;;;;;;;25.11;42.56;101206.13;1744349;81;21516;-55
2021/08/14 09:21:16;;;;;;;6.45;3.80;;;;;;;25.19;42.43;101196.45;1730436;82;21672;-54
2021/08/14 09:24:42;;;;;;;5.45;2.80;;;;;;;25.25;42.32;101198.23;1743766;81;21902;-54
2021/08/14 09:28:06;;;;;;;4.83;3.58;;;;;;;25.30;42.15;101189.92;1723088;81;21381;-56
2021/08/14 09:31:14;;;;;;;4.55;2.92;;;;;;;25.37;42.54;101199.07;1736000;82;21995;-57
2021/08/14 09:34:26;;;;;;;4.97;2.95;;;;;;;25.46;42.22;101187.19;1752479;79;21819;-55
2021/08/14 09:37:36;;;;;;;5.58;3.00;;;;;;;25.47;41.54;101189.41;1768489;81;21240;-54
2021/08/14 09:40:48;;;;;;;6.45;3.27;;;;;;;25.50;41.64;101195.95;1734540;81;21343;-54
2021/08/14 09:43:56;;;;;;;4.15;2.77;;;;;;;25.55;41.37;101196.00;1769165;80;21374;-54
2021/08/14 09:47:08;;;;;;;4.95;2.98;;;;;;;25.63;40.92;101198.39;1769292;81;21354;-54
2021/08/14 09:50:09;;;;;;;5.20;3.30;;;;;;;25.67;40.52;101185.00;1783063;79;21394;-54
2021/08/14 09:53:21;;;;;;;5.00;3.40;;;;;;;25.65;40.11;101184.97;1782232;79;21231;-55
2021/08/14 09:56:37;;;;;;;5.08;3.60;;;;;;;25.64;40.37;101178.50;1788507;78;21209;-54
2021/08/14 09:59:39;;;;;;;8.15;3.55;;;;;;;25.77;40.47;101180.11;1818673;79;21939;-55
2021/08/14 10:02:44;;;;;;;5.65;3.52;;;;;;;25.89;39.92;101175.27;1795246;79;22018;-54
2021/08/14 10:05:54;;;;;;;5.17;3.02;;;;;;;25.99;39.76;101183.86;1737232;82;21382;-54
2021/08/14 10:09:01;;;;;;;5.30;3.60;;;;;;;26.08;39.36;101174.77;1762898;81;21410;-53
2021/08/14 10:12:15;;;;;;;4.60;3.27;;;;;;;26.13;39.20;101180.44;1728164;82;21264;-53
2021/08/14 10:15:25;;;;;;;6.20;3.30;;;;;;;26.18;38.67;101160.86;1734334;82;21287;-54
2021/08/14 10:18:32;;;;;;;4.60;3.55;;;;;;;26.28;38.25;101165.77;1752333;82;21244;-55
2021/08/14 10:21:40;;;;;;;5.85;2.95;;;;;;;26.30;38.18;101163.56;1766718;79;21229;-55
2021/08/14 10:24:48;;;;;;;6.35;2.95;;;;;;;26.31;38.42;101149.80;1768965;79;21209;-54
2021/08/14 10:28:00;;;;;;;5.83;3.52;;;;;;;26.38;38.56;101154.68;1769229;79;21737;-54
2021/08/14 10:31:06;;;;;;;9.30;3.20;;;;;;;26.46;38.48;101143.82;1769735;79;21195;-55
2021/08/14 10:34:24;;;;;;;5.37;3.10;;;;;;;26.51;38.34;101157.11;1758168;80;21418;-56
2021/08/14 10:37:41;;;;;;;7.92;3.25;;;;;;;26.51;37.94;101150.08;1768226;80;21872;-56
2021/08/14 10:41:09;;;;;;;5.58;3.17;;;;;;;26.55;37.77;101141.95;1767885;80;21237;-54
2021/08/14 10:44:17;;;;;;;4.28;3.02;;;;;;;26.58;37.29;101133.86;1761094;81;21386;-55
2021/08/14 10:47:46;;;;;;;6.53;3.08;;;;;;;26.66;37.75;101125.00;1758966;81;21398;-55
2021/08/14 10:51:01;;;;;;;7.37;2.90;;;;;;;26.81;37.77;101130.81;1802228;77;21187;-55
2021/08/14 10:54:07;;;;;;;5.83;3.40;;;;;;;26.93;37.12;101132.03;1779187;79;21220;-54
2021/08/14 10:57:18;;;;;;;7.50;2.80;;;;;;;27.04;36.91;101127.66;1772996;80;21765;-56
2021/08/14 11:00:29;;;;;;;5.67;2.65;;;;;;;27.14;36.76;101136.77;1736781;82;21427;-55
2021/08/14 11:03:45;;;;;;;7.83;3.22;;;;;;;27.18;36.06;101135.95;1736799;81;21252;-54
2021/08/14 11:06:51;;;;;;;6.17;3.20;;;;;;;27.13;36.19;101127.47;1726637;82;21236;-54
2021/08/14 11:10:05;;;;;;;4.10;3.12;;;;;;;27.19;36.29;101126.97;1737590;81;21390;-54
2021/08/14 11:13:34;;;;;;;6.12;2.98;;;;;;;27.26;35.87;101116.33;1738945;81;21845;-54
2021/08/14 11:17:07;;;;;;;6.40;3.05;;;;;;;27.34;35.85;101100.41;1755881;81;21415;-55
2021/08/14 11:20:33;;;;;;;6.15;3.42;;;;;;;27.49;35.20;101105.63;1767197;80;21197;-55
2021/08/14 11:23:39;;;;;;;5.20;3.00;;;;;;;27.62;35.37;101109.36;1767186;80;21221;-55
2021/08/14 11:26:46;;;;;;;4.97;3.40;;;;;;;27.78;35.18;101096.27;1767071;80;21849;-54
2021/08/14 11:29:53;;;;;;;7.65;3.33;;;;;;;27.90;34.89;101115.77;1766991;80;21236;-54
2021/08/14 11:32:59;;;;;;;6.55;3.00;;;;;;;27.83;34.43;101101.35;1767277;80;21394;-55
2021/08/14 11:36:15;;;;;;;4.55;2.95;;;;;;;27.78;34.67;101092.88;1768008;79;22829;-55
2021/08/14 11:39:22;;;;;;;3.87;2.92;;;;;;;27.79;34.56;101096.55;1765756;80;22074;-56
2021/08/14 11:42:29;;;;;;;4.42;2.80;;;;;;;27.75;33.96;101105.22;1708089;82;21649;-55
2021/08/14 11:45:37;;;;;;;10.85;6.80;;;;;;;27.70;33.57;101084.94;1767469;81;21342;-54
2021/08/14 11:48:49;;;;;;;6.30;3.62;;;;;;;27.70;33.97;101077.08;1766511;79;21248;-55
2021/08/14 11:51:54;;;;;;;3.98;3.08;;;;;;;27.83;34.44;101077.97;1736700;82;21905;-54
2021/08/14 11:55:09;;;;;;;4.75;2.95;;;;;;;27.97;34.63;101075.57;1737096;81;21402;-55
2021/08/14 11:58:17;;;;;;;11.38;3.30;;;;;;;28.05;33.92;101084.33;1737557;81;21248;-55
2021/08/14 12:01:24;;;;;;;5.33;3.92;;;;;;;28.10;33.35;101087.75;1737764;82;21228;-54
2021/08/14 12:04:30;;;;;;;4.67;3.20;;;;;;;28.10;33.43;101068.04;1754778;80;21217;-55
2021/08/14 12:07:36;;;;;;;4.28;3.20;;;;;;;28.12;33.24;101074.22;1743030;82;21187;-54
2021/08/14 12:10:42;;;;;;;4.87;3.27;;;;;;;28.08;33.25;101073.09;1703656;84;21358;-54
2021/08/14 12:13:52;;;;;;;6.62;3.17;;;;;;;28.05;33.12;101073.64;1708166;82;21263;-54
2021/08/14 12:17:08;;;;;;;4.08;2.90;;;;;;;28.01;33.40;101065.44;1768998;79;21710;-60
2021/08/14 12:20:15;;;;;;;6.90;3.25;;;;;;;28.02;33.37;101058.70;1768858;81;21379;-54
2021/08/14 12:23:33;;;;;;;5.97;3.00;;;;;;;27.96;33.70;101056.96;1768572;79;21552;-54
2021/08/14 12:26:43;;;;;;;6.50;3.25;;;;;;;27.95;33.71;101051.91;1782425;79;21272;-56
2021/08/14 12:29:50;;;;;;;6.58;3.15;;;;;;;28.00;33.88;101063.20;1798463;79;21319;-55
2021/08/14 12:32:55;;;;;;;5.03;3.20;;;;;;;28.02;33.75;101044.05;1765838;79;21170;-54
2021/08/14 12:36:10;;;;;;;4.92;3.22;;;;;;;27.97;33.71;101048.27;1766245;80;21971;-56
2021/08/14 12:39:17;;;;;;;5.65;3.47;;;;;;;27.92;33.57;101053.87;1764721;80;21201;-54
2021/08/14 12:42:41;;;;;;;6.05;2.87;;;;;;;27.82;33.47;101047.59;1775753;80;21729;-55
2021/08/14 12:45:48;;;;;;;5.08;3.20;;;;;;;27.74;33.92;101034.04;1759258;80;21614;-56
2021/08/14 12:49:32;;;;;;;5.20;2.95;;;;;;;27.70;33.70;101046.12;1766443;80;21438;-54
2021/08/14 12:52:37;;;;;;;6.75;3.00;;;;;;;27.64;33.77;101042.41;1767577;80;21810;-54
2021/08/14 12:55:58;;;;;;;4.85;2.92;;;;;;;27.60;34.14;101031.98;1767430;80;21186;-56
2021/08/14 12:59:04;;;;;;;5.80;3.27;;;;;;;27.61;34.46;101037.88;1740512;81;21363;-53
2021/08/14 13:02:11;;;;;;;7.70;3.00;;;;;;;27.62;34.71;101031.98;1743997;81;21316;-53
2021/08/14 13:05:17;;;;;;;6.08;3.27;;;;;;;27.59;34.50;101027.48;1759038;81;21398;-55
2021/08/14 13:08:25;;;;;;;8.78;3.60;;;;;;;27.56;34.32;101030.26;1767962;79;21824;-55
2021/08/14 13:11:31;;;;;;;4.42;3.12;;;;;;;27.53;34.22;101026.59;1766475;80;21861;-54
2021/08/14 13:14:39;;;;;;;5.72;3.52;;;;;;;27.53;34.35;101023.77;1757330;80;21213;-52
2021/08/14 13:17:45;;;;;;;5.65;3.47;;;;;;;27.53;34.43;101013.92;1764590;81;21348;-55
2021/08/14 13:20:50;;;;;;;11.25;3.30;;;;;;;27.57;34.48;101012.28;1770489;79;21394;-54
2021/08/14 13:24:00;;;;;;;5.67;3.27;;;;;;;27.59;34.29;101001.58;1767569;80;21868;-53
2021/08/14 13:27:04;;;;;;;6.75;3.40;;;;;;;27.65;34.38;100994.85;1769534;80;21233;-55
2021/08/14 13:30:14;;;;;;;6.47;3.45;;;;;;;27.69;34.28;101008.68;1767414;80;21293;-55
2021/08/14 13:33:20;;;;;;;4.90;2.98;;;;;;;27.70;33.98;101005.31;1758581;80;21758;-54
2021/08/14 13:36:24;;;;;;;6.37;3.17;;;;;;;27.68;34.22;100998.55;1766818;80;21264;-53
2021/08/14 13:39:31;;;;;;;5.42;3.47;;;;;;;27.70;34.32;101002.50;1780335;79;21204;-54
2021/08/14 13:42:38;;;;;;;10.03;3.80;;;;;;;27.71;34.36;101006.45;1762924;81;21173;-55
2021/08/14 13:45:43;;;;;;;6.08;2.85;;;;;;;27.73;33.74;100999.96;1766791;80;21339;-54
2021/08/14 13:48:52;;;;;;;4.90;3.10;;;;;;;27.71;34.00;101000.81;1767994;80;21383;-53
2021/08/14 13:52:00;;;;;;;9.08;3.80;;;;;;;27.67;34.13;101000.23;1767934;79;21174;-54
2021/08/14 13:55:06;;;;;;;8.83;3.42;;;;;;;27.67;34.13;100994.61;1767890;80;22011;-54
2021/08/14 13:58:16;;;;;;;8.93;3.20;;;;;;;27.71;34.13;100999.41;1770160;79;21253;-54
2021/08/14 14:01:22;;;;;;;6.50;3.20;;;;;;;27.78;33.99;100999.17;1770326;79;21895;-53
2021/08/14 14:04:28;;;;;;;6.58;3.25;;;;;;;27.81;33.75;100992.41;1768794;80;21371;-54
2021/08/14 14:07:34;;;;;;;7.42;3.45;;;;;;;27.81;33.53;100998.03;1768275;79;21747;-55
2021/08/14 14:10:40;;;;;;;6.85;3.10;;;;;;;27.80;33.57;100998.31;1767343;80;21178;-54
2021/08/14 14:13:47;;;;;;;5.92;3.20;;;;;;;27.79;33.42;100991.86;1767772;80;21213;-55
2021/08/14 14:16:54;;;;;;;7.10;3.12;;;;;;;27.83;33.21;101002.84;1767890;80;21964;-57
2021/08/14 14:20:01;;;;;;;6.53;3.10;;;;;;;27.90;33.23;100989.09;1738068;81;21603;-54
2021/08/14 14:23:10;;;;;;;4.28;2.90;;;;;;;27.89;33.25;100991.64;1767718;79;21530;-56
2021/08/14 14:26:17;;;;;;;9.05;2.90;;;;;;;27.82;33.08;100989.05;1765994;81;21869;-55
2021/08/14 14:29:25;;;;;;;4.95;3.25;;;;;;;27.73;33.02;100985.89;1769831;79;21351;-54
2021/08/14 14:32:34;;;;;;;6.53;3.10;;;;;;;27.68;33.09;100990.11;1770911;79;21355;-53